Time;durP1;ratioP1;P1;durP2;ratioP2;P2;SDS_P1;SDS_P2;PMS_P1;PMS_P2;Temp;Humidity;BMP_temperature;BMP_pressure;BME280_temperature;BME280_humidity;BME280_pressure;Samples;Min_cycle;Max_cycle;Signal;HPM_P1;HPM_P2
2022/06/03 00:00:19;;;;;;;;;;;;;;;;;;5117142;27;28546;-84
2022/06/03 00:02:44;;;;;;;;;;;;;;;;;;5118457;27;28444;-84
2022/06/03 00:05:09;;;;;;;;;;;;;;;;;;5117285;27;28841;-84
2022/06/03 00:07:34;;;;;;;;;;;;;;;;;;5115453;27;29816;-84
2022/06/03 00:10:00;;;;;;;;;;;;;;;;;;5117114;27;28517;-84
2022/06/03 00:12:25;;;;;;;;;;;;;;;;;;5118551;27;28436;-84
2022/06/03 00:14:50;;;;;;;;;;;;;;;;;;5137920;27;28476;-83
2022/06/03 00:17:15;;;;;;;;;;;;;;;;;;5127832;27;29283;-84
2022/06/03 00:19:41;;;;;;;;;;;;;;;;;;5117152;27;28476;-84
2022/06/03 00:22:06;;;;;;;;;;;;;;;;;;5117086;27;28451;-83
2022/06/03 00:24:31;;;;;;;;;;;;;;;;;;5120117;27;28526;-83
2022/06/03 00:26:56;;;;;;;;;;;;;;;;;;5137182;27;29283;-84
2022/06/03 00:29:21;;;;;;;;;;;;;;;;;;5137609;27;28342;-84
2022/06/03 00:31:46;;;;;;;;;;;;;;;;;;5120407;27;28556;-83
2022/06/03 00:34:11;;;;;;;;;;;;;;;;;;5116772;27;28484;-84
2022/06/03 00:36:36;;;;;;;;;;;;;;;;;;5116760;27;28350;-83
2022/06/03 00:39:02;;;;;;;;;;;;;;;;;;5116658;27;28484;-84
2022/06/03 00:41:27;;;;;;;;;;;;;;;;;;5131552;27;28403;-84
2022/06/03 00:43:52;;;;;;;;;;;;;;;;;;5137372;27;28513;-84
2022/06/03 00:46:18;;;;;;;;;;;;;;;;;;5137087;27;28554;-84
2022/06/03 00:48:43;;;;;;;;;;;;;;;;;;5137318;27;28502;-84
2022/06/03 00:51:08;;;;;;;;;;;;;;;;;;5129157;27;28448;-84
2022/06/03 00:53:33;;;;;;;;;;;;;;;;;;5128371;27;28487;-84
2022/06/03 00:55:58;;;;;;;;;;;;;;;;;;5135216;27;28514;-84
2022/06/03 00:58:23;;;;;;;;;;;;;;;;;;5135617;27;28541;-84
2022/06/03 01:00:48;;;;;;;;;;;;;;;;;;5118021;27;28530;-84
2022/06/03 01:03:13;;;;;;;;;;;;;;;;;;5126915;27;28507;-84
2022/06/03 01:05:38;;;;;;;;;;;;;;;;;;5137101;27;29438;-83
2022/06/03 01:08:04;;;;;;;;;;;;;;;;;;5136886;27;32344;-84
2022/06/03 01:10:29;;;;;;;;;;;;;;;;;;5136949;27;28405;-84
2022/06/03 01:12:54;;;;;;;;;;;;;;;;;;5130981;27;28472;-84
2022/06/03 01:15:19;;;;;;;;;;;;;;;;;;5123394;27;28373;-85
2022/06/03 01:17:45;;;;;;;;;;;;;;;;;;5124203;27;28357;-85
2022/06/03 01:20:10;;;;;;;;;;;;;;;;;;5116098;27;28372;-85
2022/06/03 01:22:35;;;;;;;;;;;;;;;;;;5116865;27;28476;-85
2022/06/03 01:25:01;;;;;;;;;;;;;;;;;;5120406;27;28986;-84
2022/06/03 01:27:26;;;;;;;;;;;;;;;;;;5117870;27;28523;-85
2022/06/03 01:29:52;;;;;;;;;;;;;;;;;;5116536;27;28346;-86
2022/06/03 01:32:17;;;;;;;;;;;;;;;;;;5116094;27;28248;-84
2022/06/03 01:34:42;;;;;;;;;;;;;;;;;;5116435;27;28970;-84
2022/06/03 01:37:07;;;;;;;;;;;;;;;;;;5115773;27;28479;-84
2022/06/03 01:39:32;;;;;;;;;;;;;;;;;;5116296;27;28395;-85
2022/06/03 01:41:57;;;;;;;;;;;;;;;;;;5116352;27;27911;-85
2022/06/03 01:44:22;;;;;;;;;;;;;;;;;;5116225;27;28574;-85
2022/06/03 01:46:48;;;;;;;;;;;;;;;;;;5116301;27;28439;-85
2022/06/03 01:49:13;;;;;;;;;;;;;;;;;;5116064;27;28314;-85
2022/06/03 01:51:38;;;;;;;;;;;;;;;;;;5115956;27;28243;-85
2022/06/03 01:54:03;;;;;;;;;;;;;;;;;;5115713;27;34370;-85
2022/06/03 01:56:28;;;;;;;;;;;;;;;;;;5116225;27;28401;-85
2022/06/03 01:58:53;;;;;;;;;;;;;;;;;;5116251;27;28397;-85
2022/06/03 02:01:19;;;;;;;;;;;;;;;;;;5115739;27;28415;-85
2022/06/03 02:03:44;;;;;;;;;;;;;;;;;;5115870;27;28415;-84
2022/06/03 02:06:09;;;;;;;;;;;;;;;;;;5116079;27;28327;-85
2022/06/03 02:08:34;;;;;;;;;;;;;;;;;;5116071;27;28326;-85
2022/06/03 02:10:59;;;;;;;;;;;;;;;;;;5116241;27;28461;-85
2022/06/03 02:13:24;;;;;;;;;;;;;;;;;;5115620;27;28383;-84
2022/06/03 02:15:49;;;;;;;;;;;;;;;;;;5115568;27;28519;-85
2022/06/03 02:18:14;;;;;;;;;;;;;;;;;;5115974;27;28393;-85
2022/06/03 02:20:39;;;;;;;;;;;;;;;;;;5116008;27;28547;-85
2022/06/03 02:23:06;;;;;;;;;;;;;;;;;;5115943;27;28436;-85
2022/06/03 02:25:31;;;;;;;;;;;;;;;;;;5115506;27;28398;-84
2022/06/03 02:27:56;;;;;;;;;;;;;;;;;;5115403;27;28325;-85
2022/06/03 02:30:27;;;;;;;;;;;;;;;;;;5115572;27;28342;-84
2022/06/03 02:32:52;;;;;;;;;;;;;;;;;;5115495;27;28426;-85
2022/06/03 02:35:17;;;;;;;;;;;;;;;;;;5115728;27;28314;-84
2022/06/03 02:37:42;;;;;;;;;;;;;;;;;;5115373;27;28338;-85
2022/06/03 02:40:07;;;;;;;;;;;;;;;;;;5115827;27;27747;-85
2022/06/03 02:42:32;;;;;;;;;;;;;;;;;;5115471;27;28590;-84
2022/06/03 02:44:58;;;;;;;;;;;;;;;;;;5115329;27;28309;-85
2022/06/03 02:47:23;;;;;;;;;;;;;;;;;;5115473;27;28472;-85
2022/06/03 02:49:48;;;;;;;;;;;;;;;;;;5115722;27;28286;-85
2022/06/03 02:52:13;;;;;;;;;;;;;;;;;;5114743;27;28343;-85
2022/06/03 02:54:38;;;;;;;;;;;;;;;;;;5115248;27;28534;-85
2022/06/03 02:57:03;;;;;;;;;;;;;;;;;;5115318;27;28269;-84
2022/06/03 02:59:28;;;;;;;;;;;;;;;;;;5114371;27;28348;-84
2022/06/03 03:01:53;;;;;;;;;;;;;;;;;;5118808;27;28492;-84
2022/06/03 03:04:19;;;;;;;;;;;;;;;;;;5118720;27;28446;-84
2022/06/03 03:06:44;;;;;;;;;;;;;;;;;;5118523;27;28413;-84
2022/06/03 03:09:09;;;;;;;;;;;;;;;;;;5118993;27;28378;-84
2022/06/03 03:11:34;;;;;;;;;;;;;;;;;;5118664;27;28511;-84
2022/06/03 03:13:59;;;;;;;;;;;;;;;;;;5118077;27;28362;-84
2022/06/03 03:16:24;;;;;;;;;;;;;;;;;;5118344;27;28409;-84
2022/06/03 03:18:49;;;;;;;;;;;;;;;;;;5138325;27;28400;-88
2022/06/03 03:21:14;;;;;;;;;;;;;;;;;;5117026;27;28650;-88
2022/06/03 03:23:39;;;;;;;;;;;;;;;;;;5118138;27;28403;-89
2022/06/03 03:26:05;;;;;;;;;;;;;;;;;;5116737;27;28292;-88
2022/06/03 03:28:30;;;;;;;;;;;;;;;;;;5117461;27;28469;-87
2022/06/03 03:30:55;;;;;;;;;;;;;;;;;;5124952;27;29489;-89
2022/06/03 03:33:20;;;;;;;;;;;;;;;;;;5118054;27;28425;-88
2022/06/03 03:35:45;;;;;;;;;;;;;;;;;;5118489;27;28330;-88
2022/06/03 03:38:10;;;;;;;;;;;;;;;;;;5118190;27;28421;-88
2022/06/03 03:40:35;;;;;;;;;;;;;;;;;;5118314;27;28650;-87
2022/06/03 03:43:00;;;;;;;;;;;;;;;;;;5117977;27;28562;-88
2022/06/03 03:45:26;;;;;;;;;;;;;;;;;;5118181;27;28369;-88
2022/06/03 03:47:51;;;;;;;;;;;;;;;;;;5118032;27;28443;-87
2022/06/03 03:50:16;;;;;;;;;;;;;;;;;;5117908;27;28466;-87
2022/06/03 03:52:41;;;;;;;;;;;;;;;;;;5117413;27;28364;-88
2022/06/03 03:55:06;;;;;;;;;;;;;;;;;;5117779;27;28391;-88
2022/06/03 03:57:31;;;;;;;;;;;;;;;;;;5118218;27;28287;-88
2022/06/03 03:59:56;;;;;;;;;;;;;;;;;;5117997;27;28388;-89
2022/06/03 04:02:21;;;;;;;;;;;;;;;;;;5115421;27;28508;-88
2022/06/03 04:04:46;;;;;;;;;;;;;;;;;;5117825;27;28548;-87
2022/06/03 04:07:12;;;;;;;;;;;;;;;;;;5117786;27;28445;-87
2022/06/03 04:09:37;;;;;;;;;;;;;;;;;;5117744;27;28417;-88
2022/06/03 04:12:02;;;;;;;;;;;;;;;;;;5117602;27;28350;-88
2022/06/03 04:14:27;;;;;;;;;;;;;;;;;;5117706;27;28310;-88
2022/06/03 04:16:52;;;;;;;;;;;;;;;;;;5117872;27;28414;-88
2022/06/03 04:19:17;;;;;;;;;;;;;;;;;;5117291;27;29589;-87
2022/06/03 04:21:42;;;;;;;;;;;;;;;;;;5117796;27;28396;-88
2022/06/03 04:24:07;;;;;;;;;;;;;;;;;;5117564;27;28357;-88
2022/06/03 04:26:32;;;;;;;;;;;;;;;;;;5117439;27;28342;-88
2022/06/03 04:28:57;;;;;;;;;;;;;;;;;;5117419;27;28334;-88
2022/06/03 04:31:23;;;;;;;;;;;;;;;;;;5115859;27;28478;-88
2022/06/03 04:33:48;;;;;;;;;;;;;;;;;;5117592;27;28400;-90
2022/06/03 04:36:13;;;;;;;;;;;;;;;;;;5117375;27;28377;-89
2022/06/03 04:38:38;;;;;;;;;;;;;;;;;;5117352;27;28385;-89
2022/06/03 04:41:03;;;;;;;;;;;;;;;;;;5117011;27;28449;-88
2022/06/03 04:43:28;;;;;;;;;;;;;;;;;;5115939;27;28394;-88
2022/06/03 04:45:53;;;;;;;;;;;;;;;;;;5117531;27;28596;-88
2022/06/03 04:48:18;;;;;;;;;;;;;;;;;;5117034;27;28460;-88
2022/06/03 04:50:43;;;;;;;;;;;;;;;;;;5117140;27;28541;-88
2022/06/03 04:53:08;;;;;;;;;;;;;;;;;;5116803;27;28328;-89
2022/06/03 04:55:34;;;;;;;;;;;;;;;;;;5116855;27;28310;-88
2022/06/03 04:57:59;;;;;;;;;;;;;;;;;;5117038;27;28305;-88
2022/06/03 05:00:24;;;;;;;;;;;;;;;;;;5116164;27;28515;-88
2022/06/03 05:02:49;;;;;;;;;;;;;;;;;;5115636;27;28512;-88
2022/06/03 05:05:14;;;;;;;;;;;;;;;;;;5116714;27;28559;-88
2022/06/03 05:07:40;;;;;;;;;;;;;;;;;;5116768;27;28431;-88
2022/06/03 05:10:05;;;;;;;;;;;;;;;;;;5117018;27;28542;-89
2022/06/03 05:12:31;;;;;;;;;;;;;;;;;;5116629;27;28289;-89
2022/06/03 05:14:56;;;;;;;;;;;;;;;;;;5116515;27;28531;-88
2022/06/03 05:17:21;;;;;;;;;;;;;;;;;;5116515;27;29333;-88
2022/06/03 05:19:46;;;;;;;;;;;;;;;;;;5116897;27;28491;-87
2022/06/03 05:22:13;;;;;;;;;;;;;;;;;;5116618;27;28381;-89
2022/06/03 05:24:38;;;;;;;;;;;;;;;;;;5116312;27;28306;-88
2022/06/03 05:27:03;;;;;;;;;;;;;;;;;;5116355;27;28356;-87
2022/06/03 05:29:28;;;;;;;;;;;;;;;;;;5116499;27;28302;-89
2022/06/03 05:31:53;;;;;;;;;;;;;;;;;;5115906;27;28468;-87
2022/06/03 05:34:18;;;;;;;;;;;;;;;;;;5116519;27;28390;-87
2022/06/03 05:36:43;;;;;;;;;;;;;;;;;;5114736;27;28577;-87
2022/06/03 05:39:08;;;;;;;;;;;;;;;;;;5115686;27;28366;-88
2022/06/03 05:44:17;;;;;;;;;;;;;;;;;;5116222;27;28422;-89
2022/06/03 05:46:42;;;;;;;;;;;;;;;;;;5116343;27;28566;-88
2022/06/03 05:49:08;;;;;;;;;;;;;;;;;;5115860;27;28338;-88
2022/06/03 05:51:33;;;;;;;;;;;;;;;;;;5116002;27;28298;-88
2022/06/03 05:53:58;;;;;;;;;;;;;;;;;;5115819;27;28511;-89
2022/06/03 05:56:23;;;;;;;;;;;;;;;;;;5115622;27;28441;-87
2022/06/03 05:58:48;;;;;;;;;;;;;;;;;;5115750;27;28228;-87
2022/06/03 06:01:13;;;;;;;;;;;;;;;;;;5115521;27;28325;-88
2022/06/03 06:03:38;;;;;;;;;;;;;;;;;;5115884;27;28257;-87
2022/06/03 06:06:03;;;;;;;;;;;;;;;;;;5115941;27;28506;-88
2022/06/03 06:08:28;;;;;;;;;;;;;;;;;;5115156;27;28372;-87
2022/06/03 06:10:53;;;;;;;;;;;;;;;;;;5114893;27;28572;-87
2022/06/03 06:13:21;;;;;;;;;;;;;;;;;;5115999;27;27753;-88
2022/06/03 06:15:46;;;;;;;;;;;;;;;;;;5115733;27;29367;-88
2022/06/03 06:18:11;;;;;;;;;;;;;;;;;;5115749;27;28358;-87
2022/06/03 06:20:36;;;;;;;;;;;;;;;;;;5116024;27;28411;-88
2022/06/03 06:23:02;;;;;;;;;;;;;;;;;;5115741;27;28519;-88
2022/06/03 06:25:28;;;;;;;;;;;;;;;;;;5115328;27;29525;-87
2022/06/03 06:27:54;;;;;;;;;;;;;;;;;;5115922;27;28412;-89
2022/06/03 06:30:21;;;;;;;;;;;;;;;;;;5115865;27;28433;-88
2022/06/03 06:32:47;;;;;;;;;;;;;;;;;;5115651;27;28505;-87
2022/06/03 06:35:12;;;;;;;;;;;;;;;;;;5116813;27;28645;-88
2022/06/03 06:37:38;;;;;;;;;;;;;;;;;;5119272;27;28017;-88
2022/06/03 06:40:03;;;;;;;;;;;;;;;;;;5117734;27;28264;-88
2022/06/03 06:42:28;;;;;;;;;;;;;;;;;;5120003;27;28588;-88
2022/06/03 06:44:53;;;;;;;;;;;;;;;;;;5130946;27;28617;-88
2022/06/03 06:47:18;;;;;;;;;;;;;;;;;;5138240;27;28235;-88
2022/06/03 06:49:43;;;;;;;;;;;;;;;;;;5130006;27;28429;-88
2022/06/03 06:52:09;;;;;;;;;;;;;;;;;;5126068;27;28455;-87
2022/06/03 06:54:34;;;;;;;;;;;;;;;;;;5127649;27;29314;-86
2022/06/03 06:56:59;;;;;;;;;;;;;;;;;;5136307;27;28362;-87
2022/06/03 06:59:24;;;;;;;;;;;;;;;;;;5139838;27;28413;-87
2022/06/03 07:01:49;;;;;;;;;;;;;;;;;;5120823;27;28502;-86
2022/06/03 07:04:14;;;;;;;;;;;;;;;;;;5118542;27;29191;-86
2022/06/03 07:06:40;;;;;;;;;;;;;;;;;;5117402;27;28186;-86
2022/06/03 07:09:05;;;;;;;;;;;;;;;;;;5118652;27;28431;-86
2022/06/03 07:11:30;;;;;;;;;;;;;;;;;;5123581;27;28519;-85
2022/06/03 07:13:55;;;;;;;;;;;;;;;;;;5118604;27;28839;-86
2022/06/03 07:19:47;;;;;;;;;;;;;;;;;;5118797;27;28388;-86
2022/06/03 07:21:49;;;;;;;;;;;;;;;;;;5118654;27;28390;-86
2022/06/03 07:24:14;;;;;;;;;;;;;;;;;;5118443;27;29340;-85
2022/06/03 07:26:39;;;;;;;;;;;;;;;;;;5118467;27;28204;-85
2022/06/03 07:29:04;;;;;;;;;;;;;;;;;;5135275;27;27853;-85
2022/06/03 07:31:29;;;;;;;;;;;;;;;;;;5138735;27;28492;-87
2022/06/03 07:33:57;;;;;;;;;;;;;;;;;;5138360;27;28542;-85
2022/06/03 07:36:22;;;;;;;;;;;;;;;;;;5138948;27;28465;-87
2022/06/03 07:38:47;;;;;;;;;;;;;;;;;;5139008;27;28385;-86
2022/06/03 07:41:14;;;;;;;;;;;;;;;;;;5138818;27;28445;-87
2022/06/03 07:43:39;;;;;;;;;;;;;;;;;;5137937;27;28366;-87
2022/06/03 07:46:04;;;;;;;;;;;;;;;;;;5123540;27;28342;-86
2022/06/03 07:48:29;;;;;;;;;;;;;;;;;;5117931;27;28381;-86
2022/06/03 07:50:55;;;;;;;;;;;;;;;;;;5118112;27;28397;-87
2022/06/03 07:53:20;;;;;;;;;;;;;;;;;;5117991;27;28327;-87
2022/06/03 07:55:45;;;;;;;;;;;;;;;;;;5117837;27;28318;-87
2022/06/03 07:58:15;;;;;;;;;;;;;;;;;;5116598;27;28290;-87
2022/06/03 08:00:43;;;;;;;;;;;;;;;;;;5116592;27;28329;-87
2022/06/03 08:03:08;;;;;;;;;;;;;;;;;;5117560;27;29728;-87
2022/06/03 08:05:33;;;;;;;;;;;;;;;;;;5123794;27;28412;-87
2022/06/03 08:10:57;;;;;;;;;;;;;;;;;;5133022;27;28576;-87
2022/06/03 08:13:23;;;;;;;;;;;;;;;;;;5117323;27;29524;-87
2022/06/03 08:15:48;;;;;;;;;;;;;;;;;;5116274;27;28363;-87
2022/06/03 08:18:13;;;;;;;;;;;;;;;;;;5117170;27;29052;-84
2022/06/03 08:20:38;;;;;;;;;;;;;;;;;;5117743;27;28290;-83
2022/06/03 08:23:03;;;;;;;;;;;;;;;;;;5122715;27;28554;-84
2022/06/03 08:25:28;;;;;;;;;;;;;;;;;;5138293;27;28391;-85
2022/06/03 08:27:53;;;;;;;;;;;;;;;;;;5128687;27;28302;-85
2022/06/03 08:30:18;;;;;;;;;;;;;;;;;;5117191;27;28356;-85
2022/06/03 08:32:43;;;;;;;;;;;;;;;;;;5117342;27;28429;-87
2022/06/03 08:35:08;;;;;;;;;;;;;;;;;;5123854;27;28876;-88
2022/06/03 08:37:34;;;;;;;;;;;;;;;;;;5138079;27;28993;-86
2022/06/03 08:39:59;;;;;;;;;;;;;;;;;;5136772;27;28405;-87
2022/06/03 08:42:24;;;;;;;;;;;;;;;;;;5134635;27;28439;-89
2022/06/03 08:44:49;;;;;;;;;;;;;;;;;;5124371;27;28361;-88
2022/06/03 08:47:14;;;;;;;;;;;;;;;;;;5138037;27;28370;-85
2022/06/03 08:49:39;;;;;;;;;;;;;;;;;;5136955;27;28803;-83
2022/06/03 08:52:04;;;;;;;;;;;;;;;;;;5131641;27;29473;-83
2022/06/03 08:54:29;;;;;;;;;;;;;;;;;;5133501;27;28464;-82
2022/06/03 08:56:54;;;;;;;;;;;;;;;;;;5123186;27;27860;-83
2022/06/03 08:59:20;;;;;;;;;;;;;;;;;;5123001;27;28577;-84
2022/06/03 09:01:45;;;;;;;;;;;;;;;;;;5121024;27;29597;-84
2022/06/03 09:04:10;;;;;;;;;;;;;;;;;;5115924;27;28570;-82
2022/06/03 09:06:35;;;;;;;;;;;;;;;;;;5114009;27;28489;-82
2022/06/03 09:09:00;;;;;;;;;;;;;;;;;;5114592;27;28441;-83
2022/06/03 09:11:25;;;;;;;;;;;;;;;;;;5114990;27;28357;-82
2022/06/03 09:13:50;;;;;;;;;;;;;;;;;;5130170;27;28501;-84
2022/06/03 09:16:15;;;;;;;;;;;;;;;;;;5119652;27;28534;-86
2022/06/03 09:18:40;;;;;;;;;;;;;;;;;;5114329;27;28497;-82
2022/06/03 09:21:06;;;;;;;;;;;;;;;;;;5115449;27;28624;-82
2022/06/03 09:23:31;;;;;;;;;;;;;;;;;;5114420;27;29628;-84
2022/06/03 09:25:56;;;;;;;;;;;;;;;;;;5129007;27;28408;-84
2022/06/03 09:28:22;;;;;;;;;;;;;;;;;;5136614;27;28385;-84
2022/06/03 09:30:47;;;;;;;;;;;;;;;;;;5136834;27;28386;-84
2022/06/03 09:33:12;;;;;;;;;;;;;;;;;;5137092;27;28356;-84
2022/06/03 09:35:37;;;;;;;;;;;;;;;;;;5136990;27;28361;-84
2022/06/03 09:38:02;;;;;;;;;;;;;;;;;;5119367;27;28577;-84
2022/06/03 09:40:28;;;;;;;;;;;;;;;;;;5135897;27;29468;-84
2022/06/03 09:42:53;;;;;;;;;;;;;;;;;;5135880;27;28549;-84
2022/06/03 09:45:20;;;;;;;;;;;;;;;;;;5136711;27;28455;-83
2022/06/03 09:47:45;;;;;;;;;;;;;;;;;;5124198;27;28515;-83
2022/06/03 09:50:10;;;;;;;;;;;;;;;;;;5115835;27;28540;-81
2022/06/03 09:52:35;;;;;;;;;;;;;;;;;;5114514;27;28461;-85
2022/06/03 09:55:00;;;;;;;;;;;;;;;;;;5116161;27;28385;-85
2022/06/03 09:57:26;;;;;;;;;;;;;;;;;;5115978;27;28523;-85
2022/06/03 09:59:51;;;;;;;;;;;;;;;;;;5116576;27;28421;-85
2022/06/03 10:02:16;;;;;;;;;;;;;;;;;;5121623;27;28615;-84
2022/06/03 10:04:41;;;;;;;;;;;;;;;;;;5136545;27;28239;-83
2022/06/03 10:07:06;;;;;;;;;;;;;;;;;;5136709;27;28415;-81
2022/06/03 10:17:43;;;;;;;;;;;;;;;;;;5135904;27;28514;-86
2022/06/03 10:20:08;;;;;;;;;;;;;;;;;;5139880;27;29034;-85
2022/06/03 10:22:33;;;;;;;;;;;;;;;;;;5139932;27;28425;-85
2022/06/03 10:24:59;;;;;;;;;;;;;;;;;;5140260;27;28311;-85
2022/06/03 10:27:26;;;;;;;;;;;;;;;;;;5131204;27;28330;-84
2022/06/03 10:29:51;;;;;;;;;;;;;;;;;;5138094;27;28582;-85
2022/06/03 10:32:16;;;;;;;;;;;;;;;;;;5137538;27;28601;-86
2022/06/03 10:34:42;;;;;;;;;;;;;;;;;;5139682;27;28303;-86
2022/06/03 10:37:07;;;;;;;;;;;;;;;;;;5140227;27;28471;-85
2022/06/03 10:39:33;;;;;;;;;;;;;;;;;;5139498;27;28601;-86
2022/06/03 10:41:58;;;;;;;;;;;;;;;;;;5126720;27;28539;-86
2022/06/03 10:44:24;;;;;;;;;;;;;;;;;;5119256;27;28626;-86
2022/06/03 10:46:49;;;;;;;;;;;;;;;;;;5119091;27;28430;-86
2022/06/03 10:49:14;;;;;;;;;;;;;;;;;;5125272;27;28402;-83
2022/06/03 11:02:34;;;;;;;;;;;;;;;;;;5124494;27;28239;-83
2022/06/03 11:04:59;;;;;;;;;;;;;;;;;;5139504;27;27864;-81
2022/06/03 11:07:24;;;;;;;;;;;;;;;;;;5135229;27;28479;-83
2022/06/03 11:09:49;;;;;;;;;;;;;;;;;;5118458;27;29304;-83
2022/06/03 11:12:14;;;;;;;;;;;;;;;;;;5121596;27;28252;-83
2022/06/03 11:14:40;;;;;;;;;;;;;;;;;;5139181;27;28297;-82
2022/06/03 11:17:05;;;;;;;;;;;;;;;;;;5139324;27;28307;-85
2022/06/03 11:19:30;;;;;;;;;;;;;;;;;;5138763;27;28350;-84
2022/06/03 11:21:55;;;;;;;;;;;;;;;;;;5138160;27;28341;-83
2022/06/03 11:24:21;;;;;;;;;;;;;;;;;;5138936;27;28239;-87
2022/06/03 11:26:46;;;;;;;;;;;;;;;;;;5137850;27;28393;-82
2022/06/03 11:29:11;;;;;;;;;;;;;;;;;;5137558;27;28473;-84
2022/06/03 11:31:39;;;;;;;;;;;;;;;;;;5138844;27;28312;-85
2022/06/03 11:34:04;;;;;;;;;;;;;;;;;;5138910;27;28491;-84
2022/06/03 11:36:29;;;;;;;;;;;;;;;;;;5133463;27;35252;-85
2022/06/03 11:38:54;;;;;;;;;;;;;;;;;;5138853;27;28704;-85
2022/06/03 11:41:19;;;;;;;;;;;;;;;;;;5137217;27;28037;-86
2022/06/03 11:43:45;;;;;;;;;;;;;;;;;;5125118;27;28343;-86
2022/06/03 11:46:10;;;;;;;;;;;;;;;;;;5118210;27;28462;-86
2022/06/03 11:48:35;;;;;;;;;;;;;;;;;;5118098;27;28383;-86
2022/06/03 11:51:01;;;;;;;;;;;;;;;;;;5121751;27;28437;-84
2022/06/03 11:53:26;;;;;;;;;;;;;;;;;;5120535;27;28501;-83
2022/06/03 11:55:51;;;;;;;;;;;;;;;;;;5137613;27;28373;-83
2022/06/03 11:58:18;;;;;;;;;;;;;;;;;;5118898;27;28577;-82
2022/06/03 12:00:43;;;;;;;;;;;;;;;;;;5117063;27;28371;-82
2022/06/03 12:03:08;;;;;;;;;;;;;;;;;;5118152;27;28426;-83
2022/06/03 12:05:33;;;;;;;;;;;;;;;;;;5117356;27;28328;-83
2022/06/03 12:07:58;;;;;;;;;;;;;;;;;;5117004;27;29069;-82
2022/06/03 12:10:23;;;;;;;;;;;;;;;;;;5116879;27;28491;-83
2022/06/03 12:15:33;;;;;;;;;;;;;;;;;;5116807;27;28346;-82
2022/06/03 12:17:58;;;;;;;;;;;;;;;;;;5116966;27;29068;-83
2022/06/03 12:20:23;;;;;;;;;;;;;;;;;;5117594;27;28326;-83
2022/06/03 12:22:48;;;;;;;;;;;;;;;;;;5117675;27;27727;-83
2022/06/03 12:25:13;;;;;;;;;;;;;;;;;;5117585;27;27782;-83
2022/06/03 12:27:38;;;;;;;;;;;;;;;;;;5117354;27;28549;-83
2022/06/03 12:30:03;;;;;;;;;;;;;;;;;;5117604;27;28264;-83
2022/06/03 12:32:28;;;;;;;;;;;;;;;;;;5115830;27;28347;-83
2022/06/03 12:34:53;;;;;;;;;;;;;;;;;;5116712;27;28381;-83
2022/06/03 12:37:18;;;;;;;;;;;;;;;;;;5117063;27;28472;-83
2022/06/03 12:39:44;;;;;;;;;;;;;;;;;;5117229;27;28321;-83
2022/06/03 12:42:11;;;;;;;;;;;;;;;;;;5117547;27;28359;-83
2022/06/03 12:44:36;;;;;;;;;;;;;;;;;;5117335;27;28298;-83
2022/06/03 12:47:01;;;;;;;;;;;;;;;;;;5116117;27;28448;-83
2022/06/03 12:49:26;;;;;;;;;;;;;;;;;;5116974;27;28391;-82
2022/06/03 12:51:51;;;;;;;;;;;;;;;;;;5116867;27;28382;-83
2022/06/03 12:54:16;;;;;;;;;;;;;;;;;;5117256;27;28340;-83
2022/06/03 12:56:41;;;;;;;;;;;;;;;;;;5117128;27;29527;-83
2022/06/03 12:59:06;;;;;;;;;;;;;;;;;;5116400;27;27812;-83
2022/06/03 13:01:33;;;;;;;;;;;;;;;;;;5116546;27;28410;-83
2022/06/03 13:03:58;;;;;;;;;;;;;;;;;;5116903;27;28445;-83
2022/06/03 13:06:24;;;;;;;;;;;;;;;;;;5115836;27;29400;-83
2022/06/03 13:11:49;;;;;;;;;;;;;;;;;;5059652;28;28486;-83
2022/06/03 13:14:14;;;;;;;;;;;;;;;;;;5053858;28;28321;-83
2022/06/03 13:16:39;;;;;;;;;;;;;;;;;;5053573;28;28436;-83
2022/06/03 13:19:04;;;;;;;;;;;;;;;;;;5053469;28;28294;-83
2022/06/03 13:21:29;;;;;;;;;;;;;;;;;;5058211;28;28518;-82
2022/06/03 13:23:55;;;;;;;;;;;;;;;;;;5073020;28;28374;-82
2022/06/03 13:26:23;;;;;;;;;;;;;;;;;;5072494;28;28563;-82
2022/06/03 13:28:48;;;;;;;;;;;;;;;;;;5071092;28;28483;-83
2022/06/03 13:31:13;;;;;;;;;;;;;;;;;;5054188;28;28374;-83
2022/06/03 13:33:38;;;;;;;;;;;;;;;;;;5053385;28;28384;-83
2022/06/03 13:36:03;;;;;;;;;;;;;;;;;;5053588;28;28308;-83
2022/06/03 13:38:29;;;;;;;;;;;;;;;;;;5054689;28;28621;-85
2022/06/03 13:43:37;;;;;;;;;;;;;;;;;;5052797;28;28330;-85
2022/06/03 13:46:02;;;;;;;;;;;;;;;;;;5078733;28;28278;-85
2022/06/03 13:48:27;;;;;;;;;;;;;;;;;;5095953;28;28278;-84
2022/06/03 13:50:53;;;;;;;;;;;;;;;;;;5095797;28;28356;-84
2022/06/03 13:53:18;;;;;;;;;;;;;;;;;;5095610;27;28462;-84
2022/06/03 13:55:44;;;;;;;;;;;;;;;;;;5111434;27;28664;-85
2022/06/03 13:58:10;;;;;;;;;;;;;;;;;;5095601;28;28359;-84
2022/06/03 14:00:35;;;;;;;;;;;;;;;;;;5095981;28;28454;-84
2022/06/03 14:03:00;;;;;;;;;;;;;;;;;;5095691;28;28319;-84
2022/06/03 14:05:25;;;;;;;;;;;;;;;;;;5095620;28;28461;-83
2022/06/03 14:07:50;;;;;;;;;;;;;;;;;;5102583;27;28503;-84
2022/06/03 14:10:15;;;;;;;;;;;;;;;;;;5113837;27;29035;-83
2022/06/03 14:12:40;;;;;;;;;;;;;;;;;;5116024;27;27886;-83
2022/06/03 14:15:05;;;;;;;;;;;;;;;;;;5115200;27;28616;-84
2022/06/03 14:17:31;;;;;;;;;;;;;;;;;;5115743;27;28398;-83
2022/06/03 14:19:56;;;;;;;;;;;;;;;;;;5115514;27;28453;-84
2022/06/03 14:22:21;;;;;;;;;;;;;;;;;;5115410;27;28544;-83
2022/06/03 14:24:48;;;;;;;;;;;;;;;;;;5115821;27;28544;-84
2022/06/03 14:27:13;;;;;;;;;;;;;;;;;;5115517;27;28414;-82
2022/06/03 14:29:38;;;;;;;;;;;;;;;;;;5115622;27;28339;-83
2022/06/03 14:32:04;;;;;;;;;;;;;;;;;;5115174;27;28613;-81
2022/06/03 14:34:29;;;;;;;;;;;;;;;;;;5114059;27;28523;-81
2022/06/03 14:36:54;;;;;;;;;;;;;;;;;;5097034;27;32002;-84
2022/06/03 14:39:20;;;;;;;;;;;;;;;;;;5115488;27;28328;-86
2022/06/03 14:41:45;;;;;;;;;;;;;;;;;;5116063;27;28276;-83
2022/06/03 14:44:10;;;;;;;;;;;;;;;;;;5115305;27;29590;-82
2022/06/03 14:46:35;;;;;;;;;;;;;;;;;;5116474;27;32028;-85
2022/06/03 14:49:00;;;;;;;;;;;;;;;;;;5127112;27;28526;-83
2022/06/03 14:51:25;;;;;;;;;;;;;;;;;;5115814;27;28259;-82
2022/06/03 14:53:51;;;;;;;;;;;;;;;;;;5114782;27;28551;-82
2022/06/03 14:56:16;;;;;;;;;;;;;;;;;;5116138;27;28381;-83
2022/06/03 14:58:41;;;;;;;;;;;;;;;;;;5119053;27;28326;-81
2022/06/03 15:01:06;;;;;;;;;;;;;;;;;;5118441;27;28374;-83
2022/06/03 15:03:31;;;;;;;;;;;;;;;;;;5117421;27;28327;-84
2022/06/03 15:05:57;;;;;;;;;;;;;;;;;;5118002;27;28381;-83
2022/06/03 15:08:22;;;;;;;;;;;;;;;;;;5118711;27;28462;-83
2022/06/03 15:10:47;;;;;;;;;;;;;;;;;;5118420;27;27966;-83
2022/06/03 15:13:12;;;;;;;;;;;;;;;;;;5117683;27;28288;-83
2022/06/03 15:15:37;;;;;;;;;;;;;;;;;;5117413;27;28490;-82
2022/06/03 15:18:02;;;;;;;;;;;;;;;;;;5118233;27;28732;-83
2022/06/03 15:20:27;;;;;;;;;;;;;;;;;;5117483;27;28303;-87
2022/06/03 15:22:53;;;;;;;;;;;;;;;;;;5118385;27;28738;-87
2022/06/03 15:25:18;;;;;;;;;;;;;;;;;;5118095;27;28402;-84
2022/06/03 15:27:44;;;;;;;;;;;;;;;;;;5117928;27;28573;-84
2022/06/03 15:30:09;;;;;;;;;;;;;;;;;;5118803;27;28343;-84
2022/06/03 15:32:34;;;;;;;;;;;;;;;;;;5117706;27;28692;-82
2022/06/03 15:35:00;;;;;;;;;;;;;;;;;;5117809;27;28506;-81
2022/06/03 15:37:25;;;;;;;;;;;;;;;;;;5118051;27;28552;-84
2022/06/03 15:39:50;;;;;;;;;;;;;;;;;;5118542;27;28394;-83
2022/06/03 15:42:15;;;;;;;;;;;;;;;;;;5134162;27;28550;-83
2022/06/03 15:44:41;;;;;;;;;;;;;;;;;;5117921;27;28434;-83
2022/06/03 15:47:06;;;;;;;;;;;;;;;;;;5117309;27;28465;-83
2022/06/03 15:49:31;;;;;;;;;;;;;;;;;;5118228;27;28358;-83
2022/06/03 15:51:56;;;;;;;;;;;;;;;;;;5117603;27;28690;-84
2022/06/03 15:54:21;;;;;;;;;;;;;;;;;;5117870;27;28336;-83
2022/06/03 15:56:46;;;;;;;;;;;;;;;;;;5117529;27;28513;-83
2022/06/03 15:59:11;;;;;;;;;;;;;;;;;;5118113;27;28435;-83
2022/06/03 16:01:36;;;;;;;;;;;;;;;;;;5117592;27;29399;-82
2022/06/03 16:04:01;;;;;;;;;;;;;;;;;;5119693;27;28403;-83
2022/06/03 16:06:27;;;;;;;;;;;;;;;;;;5097521;27;28421;-82
2022/06/03 16:08:52;;;;;;;;;;;;;;;;;;5117205;27;28426;-88
2022/06/03 16:11:17;;;;;;;;;;;;;;;;;;5117059;27;28489;-84
2022/06/03 16:13:43;;;;;;;;;;;;;;;;;;5117183;27;28383;-82
2022/06/03 16:16:08;;;;;;;;;;;;;;;;;;5117954;27;28485;-86
2022/06/03 16:18:33;;;;;;;;;;;;;;;;;;5117962;27;28498;-82
2022/06/03 16:20:58;;;;;;;;;;;;;;;;;;5117634;27;29659;-84
2022/06/03 16:23:23;;;;;;;;;;;;;;;;;;5117133;27;28335;-84
2022/06/03 16:25:49;;;;;;;;;;;;;;;;;;5120272;27;28396;-84
2022/06/03 16:28:14;;;;;;;;;;;;;;;;;;5116383;27;28393;-83
2022/06/03 16:30:39;;;;;;;;;;;;;;;;;;5117275;27;28426;-87
2022/06/03 16:33:04;;;;;;;;;;;;;;;;;;5117409;27;28260;-85
2022/06/03 16:35:29;;;;;;;;;;;;;;;;;;5117543;27;27721;-84
2022/06/03 16:37:54;;;;;;;;;;;;;;;;;;5117268;27;28394;-86
2022/06/03 16:40:19;;;;;;;;;;;;;;;;;;5098599;27;29283;-81
2022/06/03 16:42:45;;;;;;;;;;;;;;;;;;5117243;27;28409;-85
2022/06/03 16:47:55;;;;;;;;;;;;;;;;;;5074218;28;28430;-85
2022/06/03 16:50:21;;;;;;;;;;;;;;;;;;5073296;28;28470;-82
2022/06/03 16:52:46;;;;;;;;;;;;;;;;;;5073659;28;28439;-81
2022/06/03 16:55:11;;;;;;;;;;;;;;;;;;5072528;28;28335;-83
2022/06/03 16:57:36;;;;;;;;;;;;;;;;;;5053841;28;28492;-86
2022/06/03 17:00:01;;;;;;;;;;;;;;;;;;5055912;28;29265;-84
2022/06/03 17:02:26;;;;;;;;;;;;;;;;;;5073198;28;28327;-82
2022/06/03 17:04:52;;;;;;;;;;;;;;;;;;5061569;28;28490;-84
2022/06/03 17:07:17;;;;;;;;;;;;;;;;;;5068521;28;28561;-88
2022/06/03 17:09:42;;;;;;;;;;;;;;;;;;5056681;28;30335;-82